sensor_id;sensor_type;location;lat;lon;timestamp;P1;durP1;ratioP1;P2;durP2;ratioP2
17228;SDS011;8731;50.364;8.958;2023-07-24T00:04:11;5.23;;;2.23;;
17228;SDS011;8731;50.364;8.958;2023-07-24T00:08:33;6.03;;;2.50;;
17228;SDS011;8731;50.364;8.958;2023-07-24T00:12:56;8.80;;;2.57;;
17228;SDS011;8731;50.364;8.958;2023-07-24T00:17:19;9.10;;;2.20;;
17228;SDS011;8731;50.364;8.958;2023-07-24T00:21:43;5.73;;;2.60;;
17228;SDS011;8731;50.364;8.958;2023-07-24T00:26:05;12.63;;;3.00;;
17228;SDS011;8731;50.364;8.958;2023-07-24T00:30:27;8.23;;;2.47;;
17228;SDS011;8731;50.364;8.958;2023-07-24T00:34:52;3.43;;;2.20;;
17228;SDS011;8731;50.364;8.958;2023-07-24T00:39:14;9.87;;;2.77;;
17228;SDS011;8731;50.364;8.958;2023-07-24T00:43:37;8.87;;;2.80;;
17228;SDS011;8731;50.364;8.958;2023-07-24T00:47:59;7.83;;;2.20;;
17228;SDS011;8731;50.364;8.958;2023-07-24T00:52:23;7.40;;;2.57;;
17228;SDS011;8731;50.364;8.958;2023-07-24T00:56:47;4.67;;;2.50;;
17228;SDS011;8731;50.364;8.958;2023-07-24T01:01:10;6.73;;;2.47;;
17228;SDS011;8731;50.364;8.958;2023-07-24T01:05:32;6.90;;;2.77;;
17228;SDS011;8731;50.364;8.958;2023-07-24T01:09:56;8.30;;;3.17;;
17228;SDS011;8731;50.364;8.958;2023-07-24T01:14:23;8.10;;;2.90;;
17228;SDS011;8731;50.364;8.958;2023-07-24T01:18:54;6.17;;;2.87;;
17228;SDS011;8731;50.364;8.958;2023-07-24T01:23:28;4.40;;;2.67;;
17228;SDS011;8731;50.364;8.958;2023-07-24T01:28:07;9.13;;;2.83;;
17228;SDS011;8731;50.364;8.958;2023-07-24T01:32:30;5.03;;;2.57;;
17228;SDS011;8731;50.364;8.958;2023-07-24T01:36:53;6.37;;;2.53;;
17228;SDS011;8731;50.364;8.958;2023-07-24T01:41:15;5.90;;;2.93;;
17228;SDS011;8731;50.364;8.958;2023-07-24T01:45:40;4.97;;;2.67;;
17228;SDS011;8731;50.364;8.958;2023-07-24T01:50:03;8.27;;;3.10;;
17228;SDS011;8731;50.364;8.958;2023-07-24T01:54:27;5.30;;;2.40;;
17228;SDS011;8731;50.364;8.958;2023-07-24T01:58:49;8.40;;;2.97;;
17228;SDS011;8731;50.364;8.958;2023-07-24T02:03:13;6.50;;;3.07;;
17228;SDS011;8731;50.364;8.958;2023-07-24T02:07:35;7.33;;;3.17;;
17228;SDS011;8731;50.364;8.958;2023-07-24T02:11:58;11.60;;;3.00;;
17228;SDS011;8731;50.364;8.958;2023-07-24T02:16:22;8.67;;;2.70;;
17228;SDS011;8731;50.364;8.958;2023-07-24T02:20:49;6.80;;;3.40;;
17228;SDS011;8731;50.364;8.958;2023-07-24T02:25:12;5.60;;;3.10;;
17228;SDS011;8731;50.364;8.958;2023-07-24T02:29:35;8.57;;;3.03;;
17228;SDS011;8731;50.364;8.958;2023-07-24T02:33:57;4.93;;;3.10;;
17228;SDS011;8731;50.364;8.958;2023-07-24T02:38:21;6.63;;;2.90;;
17228;SDS011;8731;50.364;8.958;2023-07-24T02:42:43;6.27;;;2.77;;
17228;SDS011;8731;50.364;8.958;2023-07-24T02:47:06;7.40;;;2.60;;
17228;SDS011;8731;50.364;8.958;2023-07-24T02:51:28;6.63;;;2.67;;
17228;SDS011;8731;50.364;8.958;2023-07-24T02:55:52;5.17;;;2.40;;
17228;SDS011;8731;50.364;8.958;2023-07-24T03:00:15;5.07;;;3.27;;
17228;SDS011;8731;50.364;8.958;2023-07-24T03:04:37;5.30;;;2.73;;
17228;SDS011;8731;50.364;8.958;2023-07-24T03:09:00;5.13;;;2.90;;
17228;SDS011;8731;50.364;8.958;2023-07-24T03:13:24;5.83;;;3.00;;
17228;SDS011;8731;50.364;8.958;2023-07-24T03:17:47;7.70;;;3.23;;
17228;SDS011;8731;50.364;8.958;2023-07-24T03:22:09;5.40;;;3.20;;
17228;SDS011;8731;50.364;8.958;2023-07-24T03:26:31;10.63;;;3.23;;
17228;SDS011;8731;50.364;8.958;2023-07-24T03:30:55;5.90;;;3.10;;
17228;SDS011;8731;50.364;8.958;2023-07-24T03:35:18;5.23;;;3.20;;
17228;SDS011;8731;50.364;8.958;2023-07-24T03:39:41;5.33;;;3.63;;
17228;SDS011;8731;50.364;8.958;2023-07-24T03:44:03;7.37;;;2.97;;
17228;SDS011;8731;50.364;8.958;2023-07-24T03:48:27;5.40;;;3.53;;
17228;SDS011;8731;50.364;8.958;2023-07-24T03:52:50;6.03;;;3.07;;
17228;SDS011;8731;50.364;8.958;2023-07-24T03:57:12;4.43;;;3.37;;
17228;SDS011;8731;50.364;8.958;2023-07-24T04:01:35;7.07;;;3.30;;
17228;SDS011;8731;50.364;8.958;2023-07-24T04:05:59;5.53;;;3.30;;
17228;SDS011;8731;50.364;8.958;2023-07-24T04:10:21;13.47;;;3.70;;
17228;SDS011;8731;50.364;8.958;2023-07-24T04:14:44;7.03;;;3.60;;
17228;SDS011;8731;50.364;8.958;2023-07-24T04:19:06;7.53;;;3.03;;
17228;SDS011;8731;50.364;8.958;2023-07-24T04:23:30;5.43;;;3.43;;
17228;SDS011;8731;50.364;8.958;2023-07-24T04:27:52;16.77;;;3.80;;
17228;SDS011;8731;50.364;8.958;2023-07-24T04:32:15;5.37;;;3.47;;
17228;SDS011;8731;50.364;8.958;2023-07-24T04:36:37;4.63;;;3.23;;
17228;SDS011;8731;50.364;8.958;2023-07-24T04:41:01;3.93;;;3.23;;
17228;SDS011;8731;50.364;8.958;2023-07-24T04:45:24;6.13;;;3.60;;
17228;SDS011;8731;50.364;8.958;2023-07-24T04:49:46;4.73;;;3.13;;
17228;SDS011;8731;50.364;8.958;2023-07-24T04:54:09;4.40;;;3.13;;
17228;SDS011;8731;50.364;8.958;2023-07-24T04:58:33;6.93;;;3.10;;
17228;SDS011;8731;50.364;8.958;2023-07-24T05:02:55;5.43;;;3.57;;
17228;SDS011;8731;50.364;8.958;2023-07-24T05:07:17;4.23;;;3.27;;
17228;SDS011;8731;50.364;8.958;2023-07-24T05:11:40;4.63;;;3.33;;
17228;SDS011;8731;50.364;8.958;2023-07-24T05:16:06;4.63;;;3.30;;
17228;SDS011;8731;50.364;8.958;2023-07-24T05:20:28;4.77;;;3.50;;
17228;SDS011;8731;50.364;8.958;2023-07-24T05:24:51;5.20;;;3.60;;
17228;SDS011;8731;50.364;8.958;2023-07-24T05:29:13;5.20;;;3.57;;
17228;SDS011;8731;50.364;8.958;2023-07-24T05:33:37;5.87;;;3.70;;
17228;SDS011;8731;50.364;8.958;2023-07-24T05:37:59;7.43;;;3.50;;
17228;SDS011;8731;50.364;8.958;2023-07-24T05:42:22;7.83;;;3.90;;
17228;SDS011;8731;50.364;8.958;2023-07-24T05:46:44;5.93;;;4.13;;
17228;SDS011;8731;50.364;8.958;2023-07-24T05:51:08;7.90;;;4.20;;
17228;SDS011;8731;50.364;8.958;2023-07-24T05:55:32;5.03;;;4.30;;
17228;SDS011;8731;50.364;8.958;2023-07-24T05:59:54;4.77;;;4.20;;
17228;SDS011;8731;50.364;8.958;2023-07-24T06:04:16;5.83;;;4.63;;
17228;SDS011;8731;50.364;8.958;2023-07-24T06:08:40;5.97;;;4.50;;
17228;SDS011;8731;50.364;8.958;2023-07-24T06:13:03;8.73;;;4.47;;
17228;SDS011;8731;50.364;8.958;2023-07-24T06:17:25;6.13;;;4.17;;
17228;SDS011;8731;50.364;8.958;2023-07-24T06:21:47;4.60;;;4.10;;
17228;SDS011;8731;50.364;8.958;2023-07-24T06:26:11;6.80;;;3.97;;
17228;SDS011;8731;50.364;8.958;2023-07-24T06:30:34;5.93;;;4.00;;
17228;SDS011;8731;50.364;8.958;2023-07-24T06:34:56;6.43;;;4.70;;
17228;SDS011;8731;50.364;8.958;2023-07-24T06:39:19;7.77;;;4.93;;
17228;SDS011;8731;50.364;8.958;2023-07-24T06:43:42;8.13;;;4.63;;
17228;SDS011;8731;50.364;8.958;2023-07-24T06:48:05;5.27;;;4.67;;
17228;SDS011;8731;50.364;8.958;2023-07-24T06:52:28;5.27;;;4.60;;
17228;SDS011;8731;50.364;8.958;2023-07-24T06:56:50;6.07;;;5.00;;
17228;SDS011;8731;50.364;8.958;2023-07-24T07:01:14;6.77;;;5.33;;
17228;SDS011;8731;50.364;8.958;2023-07-24T07:05:36;5.90;;;5.30;;
17228;SDS011;8731;50.364;8.958;2023-07-24T07:09:59;6.97;;;5.40;;
17228;SDS011;8731;50.364;8.958;2023-07-24T07:14:21;7.47;;;5.47;;
17228;SDS011;8731;50.364;8.958;2023-07-24T07:18:45;7.53;;;5.37;;
17228;SDS011;8731;50.364;8.958;2023-07-24T07:23:08;5.40;;;4.80;;
17228;SDS011;8731;50.364;8.958;2023-07-24T07:27:31;7.43;;;5.63;;
17228;SDS011;8731;50.364;8.958;2023-07-24T07:31:53;6.77;;;5.00;;
17228;SDS011;8731;50.364;8.958;2023-07-24T07:36:17;6.77;;;5.37;;
17228;SDS011;8731;50.364;8.958;2023-07-24T07:40:42;6.87;;;5.03;;
17228;SDS011;8731;50.364;8.958;2023-07-24T07:45:04;6.07;;;5.27;;
17228;SDS011;8731;50.364;8.958;2023-07-24T07:49:28;6.93;;;5.27;;
17228;SDS011;8731;50.364;8.958;2023-07-24T07:53:53;5.87;;;4.93;;
17228;SDS011;8731;50.364;8.958;2023-07-24T07:58:15;6.00;;;4.80;;
17228;SDS011;8731;50.364;8.958;2023-07-24T08:02:38;4.57;;;4.17;;
17228;SDS011;8731;50.364;8.958;2023-07-24T08:07:01;6.63;;;4.83;;
17228;SDS011;8731;50.364;8.958;2023-07-24T08:11:26;5.30;;;4.40;;
17228;SDS011;8731;50.364;8.958;2023-07-24T08:15:49;6.37;;;4.70;;
17228;SDS011;8731;50.364;8.958;2023-07-24T08:20:11;5.70;;;4.70;;
17228;SDS011;8731;50.364;8.958;2023-07-24T08:24:34;5.00;;;4.50;;
17228;SDS011;8731;50.364;8.958;2023-07-24T08:28:58;7.07;;;4.90;;
17228;SDS011;8731;50.364;8.958;2023-07-24T08:33:21;7.23;;;4.90;;
17228;SDS011;8731;50.364;8.958;2023-07-24T08:37:43;7.77;;;4.70;;
17228;SDS011;8731;50.364;8.958;2023-07-24T08:42:09;7.67;;;4.70;;
17228;SDS011;8731;50.364;8.958;2023-07-24T08:46:36;6.87;;;5.53;;
17228;SDS011;8731;50.364;8.958;2023-07-24T08:51:01;6.17;;;4.93;;
17228;SDS011;8731;50.364;8.958;2023-07-24T08:55:25;4.57;;;4.13;;
17228;SDS011;8731;50.364;8.958;2023-07-24T08:59:48;6.37;;;4.73;;
17228;SDS011;8731;50.364;8.958;2023-07-24T09:04:12;5.57;;;4.47;;
17228;SDS011;8731;50.364;8.958;2023-07-24T09:08:35;6.30;;;4.13;;
17228;SDS011;8731;50.364;8.958;2023-07-24T09:12:59;6.07;;;3.70;;
17228;SDS011;8731;50.364;8.958;2023-07-24T09:17:24;5.67;;;3.93;;
17228;SDS011;8731;50.364;8.958;2023-07-24T09:21:47;4.40;;;3.73;;
17228;SDS011;8731;50.364;8.958;2023-07-24T09:26:10;3.83;;;3.43;;
17228;SDS011;8731;50.364;8.958;2023-07-24T09:30:32;4.83;;;3.30;;
17228;SDS011;8731;50.364;8.958;2023-07-24T09:34:56;4.90;;;3.20;;
17228;SDS011;8731;50.364;8.958;2023-07-24T09:39:23;5.60;;;3.27;;
17228;SDS011;8731;50.364;8.958;2023-07-24T09:43:46;4.37;;;3.40;;
17228;SDS011;8731;50.364;8.958;2023-07-24T09:48:09;6.38;;;3.50;;
17228;SDS011;8731;50.364;8.958;2023-07-24T09:52:34;5.90;;;3.30;;
17228;SDS011;8731;50.364;8.958;2023-07-24T09:57:03;4.35;;;3.17;;
17228;SDS011;8731;50.364;8.958;2023-07-24T10:01:28;6.43;;;2.93;;
17228;SDS011;8731;50.364;8.958;2023-07-24T10:05:53;4.30;;;3.70;;
17228;SDS011;8731;50.364;8.958;2023-07-24T10:10:17;4.30;;;3.00;;
17228;SDS011;8731;50.364;8.958;2023-07-24T10:14:42;3.87;;;3.17;;
17228;SDS011;8731;50.364;8.958;2023-07-24T10:19:12;4.60;;;3.13;;
17228;SDS011;8731;50.364;8.958;2023-07-24T10:23:36;5.10;;;3.43;;
17228;SDS011;8731;50.364;8.958;2023-07-24T10:28:03;5.17;;;3.33;;
17228;SDS011;8731;50.364;8.958;2023-07-24T10:32:29;4.13;;;3.47;;
17228;SDS011;8731;50.364;8.958;2023-07-24T10:37:01;5.73;;;3.33;;
17228;SDS011;8731;50.364;8.958;2023-07-24T10:41:33;5.13;;;3.40;;
17228;SDS011;8731;50.364;8.958;2023-07-24T10:45:57;5.07;;;3.40;;
17228;SDS011;8731;50.364;8.958;2023-07-24T10:50:21;4.27;;;3.87;;
17228;SDS011;8731;50.364;8.958;2023-07-24T10:54:44;4.10;;;3.43;;
17228;SDS011;8731;50.364;8.958;2023-07-24T10:59:11;6.03;;;3.90;;
17228;SDS011;8731;50.364;8.958;2023-07-24T11:03:35;5.17;;;3.97;;
17228;SDS011;8731;50.364;8.958;2023-07-24T11:08:00;6.70;;;4.20;;
17228;SDS011;8731;50.364;8.958;2023-07-24T11:12:29;4.20;;;3.80;;
17228;SDS011;8731;50.364;8.958;2023-07-24T11:16:52;5.57;;;5.03;;
17228;SDS011;8731;50.364;8.958;2023-07-24T11:21:14;4.00;;;3.60;;
17228;SDS011;8731;50.364;8.958;2023-07-24T11:25:38;7.13;;;4.30;;
17228;SDS011;8731;50.364;8.958;2023-07-24T11:30:01;5.30;;;3.97;;
17228;SDS011;8731;50.364;8.958;2023-07-24T11:34:25;4.90;;;4.10;;
17228;SDS011;8731;50.364;8.958;2023-07-24T11:38:48;10.93;;;4.30;;
17228;SDS011;8731;50.364;8.958;2023-07-24T11:43:16;5.73;;;3.93;;
17228;SDS011;8731;50.364;8.958;2023-07-24T11:47:43;7.60;;;4.03;;
17228;SDS011;8731;50.364;8.958;2023-07-24T11:52:07;7.37;;;4.30;;
17228;SDS011;8731;50.364;8.958;2023-07-24T11:56:30;6.70;;;4.27;;
17228;SDS011;8731;50.364;8.958;2023-07-24T12:00:55;6.53;;;4.30;;
17228;SDS011;8731;50.364;8.958;2023-07-24T12:05:18;4.93;;;4.43;;
17228;SDS011;8731;50.364;8.958;2023-07-24T12:09:41;4.70;;;4.00;;
17228;SDS011;8731;50.364;8.958;2023-07-24T12:14:13;6.27;;;3.93;;
17228;SDS011;8731;50.364;8.958;2023-07-24T12:18:37;5.07;;;4.10;;
17228;SDS011;8731;50.364;8.958;2023-07-24T12:23:00;4.50;;;3.73;;
17228;SDS011;8731;50.364;8.958;2023-07-24T12:33:24;5.73;;;4.03;;
17228;SDS011;8731;50.364;8.958;2023-07-24T12:37:47;5.43;;;4.00;;
17228;SDS011;8731;50.364;8.958;2023-07-24T12:42:10;8.47;;;4.10;;
17228;SDS011;8731;50.364;8.958;2023-07-24T12:46:33;7.73;;;4.43;;
17228;SDS011;8731;50.364;8.958;2023-07-24T12:50:55;4.70;;;3.90;;
17228;SDS011;8731;50.364;8.958;2023-07-24T12:55:21;5.80;;;4.20;;
17228;SDS011;8731;50.364;8.958;2023-07-24T12:59:43;5.60;;;3.73;;
17228;SDS011;8731;50.364;8.958;2023-07-24T13:04:06;7.80;;;3.93;;
17228;SDS011;8731;50.364;8.958;2023-07-24T13:08:29;7.27;;;3.50;;
17228;SDS011;8731;50.364;8.958;2023-07-24T13:12:53;5.33;;;3.60;;
17228;SDS011;8731;50.364;8.958;2023-07-24T13:17:16;4.77;;;3.43;;
17228;SDS011;8731;50.364;8.958;2023-07-24T13:21:38;4.07;;;3.60;;
17228;SDS011;8731;50.364;8.958;2023-07-24T13:26:03;5.20;;;3.70;;
17228;SDS011;8731;50.364;8.958;2023-07-24T13:30:27;5.50;;;4.63;;
17228;SDS011;8731;50.364;8.958;2023-07-24T13:34:49;6.13;;;4.10;;
17228;SDS011;8731;50.364;8.958;2023-07-24T13:39:12;4.20;;;3.80;;
17228;SDS011;8731;50.364;8.958;2023-07-24T13:43:34;6.57;;;3.80;;
17228;SDS011;8731;50.364;8.958;2023-07-24T13:47:58;5.50;;;4.00;;
17228;SDS011;8731;50.364;8.958;2023-07-24T13:52:22;4.83;;;3.70;;
17228;SDS011;8731;50.364;8.958;2023-07-24T13:56:44;4.60;;;3.43;;
17228;SDS011;8731;50.364;8.958;2023-07-24T14:01:07;4.63;;;3.00;;
17228;SDS011;8731;50.364;8.958;2023-07-24T14:05:32;3.60;;;3.30;;
17228;SDS011;8731;50.364;8.958;2023-07-24T14:09:56;5.70;;;3.33;;
17228;SDS011;8731;50.364;8.958;2023-07-24T14:14:19;4.20;;;3.60;;
17228;SDS011;8731;50.364;8.958;2023-07-24T14:18:43;4.00;;;3.60;;
17228;SDS011;8731;50.364;8.958;2023-07-24T14:23:07;3.70;;;3.37;;
17228;SDS011;8731;50.364;8.958;2023-07-24T14:27:31;4.50;;;3.87;;
17228;SDS011;8731;50.364;8.958;2023-07-24T14:31:53;7.53;;;3.60;;
17228;SDS011;8731;50.364;8.958;2023-07-24T14:36:16;8.40;;;3.40;;
17228;SDS011;8731;50.364;8.958;2023-07-24T14:40:40;6.37;;;3.13;;
17228;SDS011;8731;50.364;8.958;2023-07-24T14:45:03;19.47;;;4.20;;
17228;SDS011;8731;50.364;8.958;2023-07-24T14:49:27;7.20;;;2.87;;
17228;SDS011;8731;50.364;8.958;2023-07-24T14:53:50;2.23;;;1.50;;
17228;SDS011;8731;50.364;8.958;2023-07-24T14:58:14;3.10;;;1.43;;
17228;SDS011;8731;50.364;8.958;2023-07-24T15:02:36;3.23;;;1.80;;
17228;SDS011;8731;50.364;8.958;2023-07-24T15:06:59;5.43;;;3.10;;
17228;SDS011;8731;50.364;8.958;2023-07-24T15:11:21;7.33;;;3.27;;
17228;SDS011;8731;50.364;8.958;2023-07-24T15:15:46;7.23;;;2.63;;
17228;SDS011;8731;50.364;8.958;2023-07-24T15:20:09;5.53;;;2.30;;
17228;SDS011;8731;50.364;8.958;2023-07-24T15:24:34;6.20;;;2.17;;
17228;SDS011;8731;50.364;8.958;2023-07-24T15:28:57;4.50;;;2.80;;
17228;SDS011;8731;50.364;8.958;2023-07-24T15:33:22;2.37;;;1.80;;
17228;SDS011;8731;50.364;8.958;2023-07-24T15:37:45;2.70;;;1.73;;
17228;SDS011;8731;50.364;8.958;2023-07-24T15:42:08;2.57;;;1.50;;
17228;SDS011;8731;50.364;8.958;2023-07-24T15:46:31;2.00;;;1.40;;
17228;SDS011;8731;50.364;8.958;2023-07-24T15:50:55;1.73;;;1.40;;
17228;SDS011;8731;50.364;8.958;2023-07-24T15:55:18;3.23;;;1.53;;
17228;SDS011;8731;50.364;8.958;2023-07-24T15:59:41;2.43;;;1.50;;
17228;SDS011;8731;50.364;8.958;2023-07-24T16:04:03;2.00;;;1.60;;
17228;SDS011;8731;50.364;8.958;2023-07-24T16:08:27;1.97;;;1.60;;
17228;SDS011;8731;50.364;8.958;2023-07-24T16:12:50;4.50;;;1.90;;
17228;SDS011;8731;50.364;8.958;2023-07-24T16:17:12;4.53;;;1.80;;
17228;SDS011;8731;50.364;8.958;2023-07-24T16:21:34;4.50;;;1.90;;
17228;SDS011;8731;50.364;8.958;2023-07-24T16:25:59;3.10;;;1.90;;
17228;SDS011;8731;50.364;8.958;2023-07-24T16:30:22;4.17;;;2.07;;
17228;SDS011;8731;50.364;8.958;2023-07-24T16:34:44;2.77;;;2.00;;
17228;SDS011;8731;50.364;8.958;2023-07-24T16:39:07;2.20;;;2.00;;
17228;SDS011;8731;50.364;8.958;2023-07-24T16:43:33;3.87;;;1.80;;
17228;SDS011;8731;50.364;8.958;2023-07-24T16:47:56;3.77;;;1.60;;
17228;SDS011;8731;50.364;8.958;2023-07-24T16:52:18;4.23;;;1.63;;
17228;SDS011;8731;50.364;8.958;2023-07-24T16:56:42;2.77;;;1.73;;
17228;SDS011;8731;50.364;8.958;2023-07-24T17:01:06;2.63;;;1.90;;
17228;SDS011;8731;50.364;8.958;2023-07-24T17:05:28;4.10;;;1.60;;
17228;SDS011;8731;50.364;8.958;2023-07-24T17:09:52;2.70;;;1.53;;
17228;SDS011;8731;50.364;8.958;2023-07-24T17:14:14;3.90;;;1.40;;
17228;SDS011;8731;50.364;8.958;2023-07-24T17:18:40;3.30;;;1.67;;
17228;SDS011;8731;50.364;8.958;2023-07-24T17:23:03;2.50;;;1.60;;
17228;SDS011;8731;50.364;8.958;2023-07-24T17:27:25;1.60;;;1.37;;
17228;SDS011;8731;50.364;8.958;2023-07-24T17:31:49;2.00;;;1.50;;
17228;SDS011;8731;50.364;8.958;2023-07-24T17:36:13;3.63;;;1.37;;
17228;SDS011;8731;50.364;8.958;2023-07-24T17:40:36;2.17;;;1.40;;
17228;SDS011;8731;50.364;8.958;2023-07-24T17:44:59;1.37;;;1.10;;
17228;SDS011;8731;50.364;8.958;2023-07-24T17:49:21;2.53;;;1.40;;
17228;SDS011;8731;50.364;8.958;2023-07-24T17:53:45;2.53;;;1.30;;
17228;SDS011;8731;50.364;8.958;2023-07-24T17:58:08;1.63;;;1.43;;
17228;SDS011;8731;50.364;8.958;2023-07-24T18:02:30;1.90;;;1.20;;
17228;SDS011;8731;50.364;8.958;2023-07-24T18:06:53;1.20;;;1.10;;
17228;SDS011;8731;50.364;8.958;2023-07-24T18:11:17;1.37;;;0.97;;
17228;SDS011;8731;50.364;8.958;2023-07-24T18:15:39;2.47;;;1.07;;
17228;SDS011;8731;50.364;8.958;2023-07-24T18:20:02;1.60;;;1.27;;
17228;SDS011;8731;50.364;8.958;2023-07-24T18:24:26;2.03;;;1.30;;
17228;SDS011;8731;50.364;8.958;2023-07-24T18:28:51;1.43;;;1.20;;
17228;SDS011;8731;50.364;8.958;2023-07-24T18:33:13;1.50;;;1.03;;
17228;SDS011;8731;50.364;8.958;2023-07-24T18:37:36;2.17;;;1.00;;
17228;SDS011;8731;50.364;8.958;2023-07-24T18:41:58;2.13;;;1.10;;
17228;SDS011;8731;50.364;8.958;2023-07-24T18:46:22;0.97;;;0.90;;
17228;SDS011;8731;50.364;8.958;2023-07-24T18:50:45;2.53;;;1.30;;
17228;SDS011;8731;50.364;8.958;2023-07-24T18:55:07;2.07;;;1.10;;
17228;SDS011;8731;50.364;8.958;2023-07-24T18:59:30;2.40;;;1.30;;
17228;SDS011;8731;50.364;8.958;2023-07-24T19:03:54;1.70;;;1.17;;
17228;SDS011;8731;50.364;8.958;2023-07-24T19:08:17;1.40;;;1.20;;
17228;SDS011;8731;50.364;8.958;2023-07-24T19:12:40;2.73;;;1.20;;
17228;SDS011;8731;50.364;8.958;2023-07-24T19:17:03;2.17;;;1.23;;
17228;SDS011;8731;50.364;8.958;2023-07-24T19:21:27;2.17;;;1.40;;
17228;SDS011;8731;50.364;8.958;2023-07-24T19:25:53;2.67;;;1.37;;
17228;SDS011;8731;50.364;8.958;2023-07-24T19:30:17;2.17;;;1.53;;
17228;SDS011;8731;50.364;8.958;2023-07-24T19:34:39;1.57;;;1.40;;
17228;SDS011;8731;50.364;8.958;2023-07-24T19:39:04;1.27;;;1.17;;
17228;SDS011;8731;50.364;8.958;2023-07-24T19:43:27;2.27;;;1.37;;
17228;SDS011;8731;50.364;8.958;2023-07-24T19:47:50;3.30;;;2.53;;
17228;SDS011;8731;50.364;8.958;2023-07-24T19:58:15;1.30;;;1.20;;
17228;SDS011;8731;50.364;8.958;2023-07-24T20:02:39;3.97;;;1.40;;
17228;SDS011;8731;50.364;8.958;2023-07-24T20:07:02;3.83;;;1.57;;
17228;SDS011;8731;50.364;8.958;2023-07-24T20:11:25;2.97;;;1.47;;
17228;SDS011;8731;50.364;8.958;2023-07-24T20:15:49;2.93;;;1.53;;
17228;SDS011;8731;50.364;8.958;2023-07-24T20:20:12;4.13;;;1.80;;
17228;SDS011;8731;50.364;8.958;2023-07-24T20:24:34;2.70;;;1.70;;
17228;SDS011;8731;50.364;8.958;2023-07-24T20:28:57;4.23;;;1.60;;
17228;SDS011;8731;50.364;8.958;2023-07-24T20:33:21;2.50;;;2.03;;
17228;SDS011;8731;50.364;8.958;2023-07-24T20:37:46;2.60;;;1.40;;
17228;SDS011;8731;50.364;8.958;2023-07-24T20:42:10;2.27;;;1.67;;
17228;SDS011;8731;50.364;8.958;2023-07-24T20:46:32;2.40;;;1.50;;
17228;SDS011;8731;50.364;8.958;2023-07-24T20:50:56;3.70;;;1.60;;
17228;SDS011;8731;50.364;8.958;2023-07-24T20:55:18;5.20;;;1.70;;
17228;SDS011;8731;50.364;8.958;2023-07-24T20:59:41;8.30;;;1.70;;
17228;SDS011;8731;50.364;8.958;2023-07-24T21:04:04;2.87;;;1.90;;
17228;SDS011;8731;50.364;8.958;2023-07-24T21:08:28;1.83;;;1.50;;
17228;SDS011;8731;50.364;8.958;2023-07-24T21:12:50;4.17;;;1.20;;
17228;SDS011;8731;50.364;8.958;2023-07-24T21:17:12;1.80;;;1.37;;
17228;SDS011;8731;50.364;8.958;2023-07-24T21:21:36;2.73;;;1.40;;
17228;SDS011;8731;50.364;8.958;2023-07-24T21:26:00;4.47;;;1.50;;
17228;SDS011;8731;50.364;8.958;2023-07-24T21:30:22;1.97;;;1.47;;
17228;SDS011;8731;50.364;8.958;2023-07-24T21:34:45;2.50;;;1.30;;
17228;SDS011;8731;50.364;8.958;2023-07-24T21:39:07;2.37;;;1.40;;
17228;SDS011;8731;50.364;8.958;2023-07-24T21:43:31;2.17;;;1.23;;
17228;SDS011;8731;50.364;8.958;2023-07-24T21:47:53;2.10;;;1.20;;
17228;SDS011;8731;50.364;8.958;2023-07-24T21:52:16;3.10;;;1.10;;
17228;SDS011;8731;50.364;8.958;2023-07-24T21:56:38;1.80;;;1.20;;
17228;SDS011;8731;50.364;8.958;2023-07-24T22:01:03;1.97;;;1.17;;
17228;SDS011;8731;50.364;8.958;2023-07-24T22:05:25;1.30;;;1.20;;
17228;SDS011;8731;50.364;8.958;2023-07-24T22:09:48;1.73;;;1.10;;
17228;SDS011;8731;50.364;8.958;2023-07-24T22:14:10;4.23;;;1.20;;
17228;SDS011;8731;50.364;8.958;2023-07-24T22:18:35;2.30;;;1.10;;
17228;SDS011;8731;50.364;8.958;2023-07-24T22:22:58;1.17;;;0.97;;
17228;SDS011;8731;50.364;8.958;2023-07-24T22:27:21;3.23;;;1.13;;
17228;SDS011;8731;50.364;8.958;2023-07-24T22:31:43;3.47;;;1.37;;
17228;SDS011;8731;50.364;8.958;2023-07-24T22:36:07;1.37;;;1.20;;
17228;SDS011;8731;50.364;8.958;2023-07-24T22:40:30;2.97;;;1.40;;
17228;SDS011;8731;50.364;8.958;2023-07-24T22:44:53;1.53;;;1.27;;
17228;SDS011;8731;50.364;8.958;2023-07-24T22:49:15;4.97;;;1.30;;
17228;SDS011;8731;50.364;8.958;2023-07-24T22:53:40;4.10;;;1.40;;
17228;SDS011;8731;50.364;8.958;2023-07-24T22:58:02;1.97;;;1.30;;
17228;SDS011;8731;50.364;8.958;2023-07-24T23:02:24;1.87;;;1.57;;
17228;SDS011;8731;50.364;8.958;2023-07-24T23:06:48;2.47;;;1.43;;
17228;SDS011;8731;50.364;8.958;2023-07-24T23:11:13;2.40;;;1.40;;
17228;SDS011;8731;50.364;8.958;2023-07-24T23:15:36;2.30;;;1.40;;
17228;SDS011;8731;50.364;8.958;2023-07-24T23:20:00;3.17;;;1.23;;
17228;SDS011;8731;50.364;8.958;2023-07-24T23:24:23;3.27;;;1.47;;
17228;SDS011;8731;50.364;8.958;2023-07-24T23:28:46;2.90;;;1.43;;
17228;SDS011;8731;50.364;8.958;2023-07-24T23:33:12;3.93;;;1.50;;
17228;SDS011;8731;50.364;8.958;2023-07-24T23:37:34;3.30;;;1.40;;
17228;SDS011;8731;50.364;8.958;2023-07-24T23:41:57;3.43;;;1.17;;
17228;SDS011;8731;50.364;8.958;2023-07-24T23:46:21;1.50;;;1.20;;
17228;SDS011;8731;50.364;8.958;2023-07-24T23:50:43;4.40;;;1.30;;
17228;SDS011;8731;50.364;8.958;2023-07-24T23:55:06;2.27;;;1.10;;
17228;SDS011;8731;50.364;8.958;2023-07-24T23:59:29;4.40;;;1.67;;
